createdAt,value
2018-06-05T00:01:02.978Z,61.90
2018-06-05T00:03:33.186Z,62.10
2018-06-05T00:06:04.031Z,62.40
2018-06-05T00:08:33.980Z,62.40
2018-06-05T00:11:04.366Z,63.00
2018-06-05T00:13:35.041Z,63.10
2018-06-05T00:16:05.914Z,62.80
2018-06-05T00:18:36.439Z,63.10
2018-06-05T00:21:07.140Z,62.70
2018-06-05T00:23:37.493Z,63.10
2018-06-05T00:26:08.405Z,63.10
2018-06-05T00:28:38.834Z,62.90
2018-06-05T00:31:08.764Z,63.00
2018-06-05T00:33:39.035Z,63.10
2018-06-05T00:36:09.048Z,63.20
2018-06-05T00:38:39.064Z,62.70
2018-06-05T00:41:09.608Z,62.80
2018-06-05T00:43:39.709Z,62.70
2018-06-05T00:46:09.653Z,62.50
2018-06-05T00:48:40.024Z,62.40
2018-06-05T00:52:14.805Z,62.70
2018-06-05T00:54:44.825Z,62.50
2018-06-05T00:57:14.967Z,62.30
2018-06-05T00:59:45.343Z,62.30
2018-06-05T01:02:16.073Z,63.20
2018-06-05T01:04:46.643Z,62.50
2018-06-05T01:07:16.912Z,63.00
2018-06-05T01:09:47.504Z,62.80
2018-06-05T01:12:17.939Z,62.80
2018-06-05T01:14:48.420Z,63.10
2018-06-05T01:17:18.938Z,63.10
2018-06-05T01:19:49.793Z,63.10
2018-06-05T01:22:20.076Z,62.60
2018-06-05T01:24:50.660Z,63.10
2018-06-05T01:27:21.468Z,63.20
2018-06-05T01:29:52.544Z,63.40
2018-06-05T01:32:22.743Z,63.10
2018-06-05T01:34:52.917Z,63.20
2018-06-05T01:37:23.090Z,62.70
2018-06-05T01:39:53.439Z,63.00
2018-06-05T01:42:24.243Z,62.90
2018-06-05T01:44:54.705Z,62.90
2018-06-05T01:47:25.439Z,62.70
2018-06-05T01:49:55.853Z,63.20
2018-06-05T01:52:26.341Z,63.20
2018-06-05T01:54:57.131Z,63.10
2018-06-05T01:57:27.485Z,62.80
2018-06-05T01:59:57.770Z,63.10
2018-06-05T02:02:28.548Z,62.60
2018-06-05T02:04:59.227Z,62.70
2018-06-05T02:10:00.388Z,62.90
2018-06-05T02:12:30.740Z,62.60
2018-06-05T02:15:00.904Z,63.80
2018-06-05T02:17:32.026Z,63.50
2018-06-05T02:20:02.202Z,63.30
2018-06-05T02:22:32.732Z,63.80
2018-06-05T02:25:03.194Z,63.90
2018-06-05T02:27:33.866Z,63.60
2018-06-05T02:30:04.197Z,63.80
2018-06-05T02:32:34.698Z,63.70
2018-06-05T02:35:05.640Z,63.90
2018-06-05T02:40:07.620Z,63.90
2018-06-05T02:42:37.880Z,63.60
2018-06-05T02:45:08.021Z,63.90
2018-06-05T02:47:38.286Z,63.70
2018-06-05T02:50:09.084Z,64.10
2018-06-05T02:52:39.253Z,64.50
2018-06-05T02:55:09.300Z,64.20
2018-06-05T02:57:39.409Z,64.10
2018-06-05T03:00:09.323Z,63.70
2018-06-05T03:02:39.470Z,63.90
2018-06-05T03:05:09.670Z,64.00
2018-06-05T03:07:39.880Z,64.20
2018-06-05T03:10:10.921Z,64.00
2018-06-05T03:12:41.206Z,64.00
2018-06-05T03:15:11.460Z,64.50
2018-06-05T03:17:41.671Z,64.10
2018-06-05T03:20:11.756Z,64.70
2018-06-05T03:22:42.039Z,64.60
2018-06-05T03:25:11.841Z,64.20
2018-06-05T03:27:42.368Z,65.00
2018-06-05T03:30:12.545Z,65.90
2018-06-05T03:32:42.751Z,66.10
2018-06-05T03:35:12.956Z,65.60
2018-06-05T03:37:43.171Z,66.10
2018-06-05T03:40:13.039Z,66.30
2018-06-05T03:42:43.062Z,66.30
2018-06-05T03:45:13.175Z,66.30
2018-06-05T03:47:42.995Z,66.00
2018-06-05T03:50:13.202Z,66.50
2018-06-05T03:52:43.415Z,67.40
2018-06-05T03:55:13.644Z,67.30
2018-06-05T03:57:43.736Z,67.30
2018-06-05T04:00:13.661Z,66.90
2018-06-05T04:02:43.773Z,67.50
2018-06-05T04:05:13.855Z,67.70
2018-06-05T04:07:43.748Z,68.00
2018-06-05T04:10:13.772Z,68.20
2018-06-05T04:12:43.623Z,68.70
2018-06-05T04:15:13.713Z,69.20
2018-06-05T04:17:43.613Z,69.30
2018-06-05T04:20:13.606Z,69.60
2018-06-05T04:22:43.910Z,69.10
2018-06-05T04:25:13.756Z,68.80
2018-06-05T04:27:44.205Z,70.40
2018-06-05T04:30:14.346Z,70.20
2018-06-05T04:32:44.353Z,69.90
2018-06-05T04:35:14.750Z,69.40
2018-06-05T04:37:44.616Z,70.10
2018-06-05T04:40:14.780Z,69.70
2018-06-05T04:42:44.961Z,69.40
2018-06-05T04:45:15.156Z,69.30
2018-06-05T04:47:45.160Z,68.90
2018-06-05T04:50:15.016Z,68.70
2018-06-05T04:52:45.027Z,69.70
2018-06-05T04:55:15.426Z,69.70
2018-06-05T04:57:45.689Z,69.70
2018-06-05T05:00:15.637Z,69.60
2018-06-05T05:02:45.960Z,69.50
2018-06-05T05:05:16.216Z,69.20
2018-06-05T05:07:46.348Z,69.00
2018-06-05T05:10:16.509Z,69.20
2018-06-05T05:12:46.762Z,69.80
2018-06-05T05:15:16.905Z,68.60
2018-06-05T05:17:47.240Z,68.70
2018-06-05T05:20:17.380Z,68.80
2018-06-05T05:22:47.657Z,68.60
2018-06-05T05:25:17.775Z,68.20
2018-06-05T05:27:47.841Z,68.60
2018-06-05T05:30:18.076Z,69.20
2018-06-05T05:32:48.066Z,77.60
2018-06-05T05:35:18.034Z,68.60
2018-06-05T05:37:48.152Z,71.50
2018-06-05T05:40:17.975Z,65.70
2018-06-05T05:42:48.361Z,64.80
2018-06-05T05:45:18.262Z,66.30
2018-06-05T05:47:48.484Z,62.60
2018-06-05T05:50:18.771Z,61.50
2018-06-05T05:52:49.515Z,61.40
2018-06-05T05:55:19.869Z,61.10
2018-06-05T05:57:50.374Z,60.30
2018-06-05T06:02:51.612Z,59.60
2018-06-05T06:05:22.080Z,59.30
2018-06-05T06:10:23.345Z,62.20
2018-06-05T06:12:53.302Z,62.30
2018-06-05T06:15:24.191Z,62.90
2018-06-05T06:17:54.715Z,63.10
2018-06-05T06:20:25.071Z,63.20
2018-06-05T06:22:55.707Z,64.00
2018-06-05T06:25:26.313Z,64.20
2018-06-05T06:27:56.566Z,64.10
2018-06-05T06:30:27.545Z,64.60
2018-06-05T06:32:57.836Z,65.00
2018-06-05T06:35:28.422Z,64.10
2018-06-05T06:37:59.272Z,64.00
2018-06-05T06:40:29.407Z,64.30
2018-06-05T06:42:59.705Z,63.60
2018-06-05T06:45:30.116Z,64.50
2018-06-05T06:48:01.018Z,64.50
2018-06-05T06:50:31.312Z,64.20
2018-06-05T06:53:01.896Z,64.00
2018-06-05T06:55:32.515Z,64.00
2018-06-05T06:58:02.734Z,64.10
2018-06-05T07:00:33.352Z,64.30
2018-06-05T07:03:03.718Z,64.00
2018-06-05T07:08:03.850Z,64.00
2018-06-05T07:10:33.782Z,64.00
2018-06-05T07:13:03.910Z,63.90
2018-06-05T07:15:34.072Z,64.00
2018-06-05T07:18:04.150Z,63.70
2018-06-05T07:20:34.327Z,64.90
2018-06-05T07:23:04.767Z,65.20
2018-06-05T07:25:34.905Z,65.10
2018-06-05T07:28:04.740Z,65.00
2018-06-05T07:30:35.096Z,64.40
2018-06-05T07:33:05.410Z,64.20
2018-06-05T07:35:35.765Z,63.90
2018-06-05T07:38:05.955Z,64.20
2018-06-05T07:43:05.683Z,64.90
2018-06-05T07:45:35.423Z,64.40
2018-06-05T07:48:05.640Z,64.30
2018-06-05T07:50:35.972Z,64.00
2018-06-05T07:53:06.141Z,63.70
2018-06-05T07:55:36.119Z,63.90
2018-06-05T07:58:06.466Z,64.40
2018-06-05T08:00:36.474Z,63.80
2018-06-05T08:03:06.849Z,64.00
2018-06-05T08:05:37.131Z,64.30
2018-06-05T08:08:07.135Z,65.50
2018-06-05T08:10:37.347Z,65.00
2018-06-05T08:13:07.630Z,65.00
2018-06-05T08:15:37.862Z,64.80
2018-06-05T08:18:08.018Z,64.70
2018-06-05T08:20:37.928Z,64.70
2018-06-05T08:23:08.251Z,64.40
2018-06-05T08:25:38.307Z,63.60
2018-06-05T08:28:08.337Z,63.00
2018-06-05T08:30:38.740Z,63.60
2018-06-05T08:33:09.056Z,63.10
2018-06-05T08:35:39.288Z,61.80
2018-06-05T08:38:09.515Z,62.60
2018-06-05T08:40:39.771Z,63.10
2018-06-05T08:43:09.918Z,63.60
2018-06-05T08:45:40.115Z,63.90
2018-06-05T08:48:09.997Z,64.20
2018-06-05T08:50:40.487Z,64.20
2018-06-05T08:53:10.661Z,64.30
2018-06-05T08:55:40.851Z,64.20
2018-06-05T08:58:10.748Z,64.00
2018-06-05T09:00:41.216Z,63.30
2018-06-05T09:03:11.663Z,63.10
2018-06-05T09:05:41.844Z,62.90
2018-06-05T09:08:12.105Z,63.10
2018-06-05T09:10:42.310Z,62.50
2018-06-05T09:13:12.308Z,62.40
2018-06-05T09:15:42.578Z,63.00
2018-06-05T09:18:15.572Z,63.00
2018-06-05T09:20:45.763Z,62.40
2018-06-05T09:23:15.988Z,62.70
2018-06-05T09:25:46.143Z,62.40
2018-06-05T09:28:16.522Z,62.40
2018-06-05T09:30:48.212Z,62.30
2018-06-05T09:33:18.728Z,61.80
2018-06-05T09:35:51.908Z,61.70
2018-06-05T09:38:22.018Z,61.90
2018-06-05T09:40:52.466Z,62.30
2018-06-05T09:43:22.517Z,62.20
2018-06-05T09:48:22.772Z,62.00
2018-06-05T09:50:53.027Z,61.50
2018-06-05T09:53:23.157Z,61.70
2018-06-05T09:55:53.336Z,61.50
2018-06-05T09:58:23.732Z,61.40
2018-06-05T10:00:54.326Z,60.70
2018-06-05T10:03:26.079Z,61.20
2018-06-05T10:05:56.211Z,61.10
2018-06-05T10:08:26.472Z,61.00
2018-06-05T10:10:56.727Z,61.10
2018-06-05T10:13:26.762Z,60.80
2018-06-05T10:15:57.019Z,61.70
2018-06-05T10:18:27.203Z,61.60
2018-06-05T10:20:57.383Z,60.50
2018-06-05T10:23:27.732Z,61.30
2018-06-05T10:25:57.892Z,60.80
2018-06-05T10:28:28.058Z,60.60
2018-06-05T10:30:58.149Z,60.90
2018-06-05T10:33:28.198Z,60.60
2018-06-05T10:35:58.504Z,60.20
2018-06-05T10:38:28.362Z,60.80
2018-06-05T10:40:58.508Z,60.70
2018-06-05T10:43:28.794Z,60.00
2018-06-05T10:45:58.833Z,59.90
2018-06-05T10:48:28.933Z,59.60
2018-06-05T10:50:58.932Z,58.90
2018-06-05T10:53:29.043Z,60.00
2018-06-05T10:55:59.087Z,61.00
2018-06-05T10:58:28.908Z,60.60
2018-06-05T11:00:58.897Z,59.80
2018-06-05T11:03:29.013Z,59.80
2018-06-05T11:05:59.038Z,59.60
2018-06-05T11:08:29.102Z,59.30
2018-06-05T11:10:59.247Z,59.50
2018-06-05T11:13:29.227Z,59.50
2018-06-05T11:15:59.264Z,58.50
2018-06-05T11:18:29.170Z,58.70
2018-06-05T11:20:59.109Z,58.90
2018-06-05T11:23:29.488Z,58.70
2018-06-05T11:26:00.468Z,58.60
2018-06-05T11:28:30.725Z,58.40
2018-06-05T11:31:01.213Z,58.20
2018-06-05T11:33:32.808Z,58.50
2018-06-05T11:36:03.108Z,59.00
2018-06-05T11:38:33.530Z,58.50
2018-06-05T11:41:03.827Z,58.50
2018-06-05T11:43:33.778Z,58.90
2018-06-05T11:46:04.365Z,58.70
2018-06-05T11:48:35.039Z,58.50
2018-06-05T11:51:05.413Z,59.50
2018-06-05T11:53:36.128Z,58.80
2018-06-05T11:56:06.823Z,58.40
2018-06-05T11:58:37.568Z,58.50
2018-06-05T12:01:08.061Z,58.00
2018-06-05T12:03:39.254Z,57.90
2018-06-05T12:06:09.520Z,58.10
2018-06-05T12:08:39.618Z,58.30
2018-06-05T12:11:10.677Z,58.10
2018-06-05T12:13:40.972Z,57.20
2018-06-05T12:16:11.289Z,57.70
2018-06-05T12:21:12.238Z,57.80
2018-06-05T12:23:43.663Z,58.40
2018-06-05T12:28:44.337Z,58.40
2018-06-05T12:31:15.055Z,57.90
2018-06-05T12:33:46.151Z,58.00
2018-06-05T12:36:16.002Z,57.60
2018-06-05T12:38:46.903Z,57.80
2018-06-05T12:41:17.094Z,57.20
2018-06-05T12:43:47.317Z,57.10
2018-06-05T12:46:17.456Z,56.70
2018-06-05T12:48:47.603Z,57.60
2018-06-05T12:51:17.949Z,57.20
2018-06-05T12:53:48.112Z,57.40
2018-06-05T12:56:18.459Z,57.40
2018-06-05T12:58:48.470Z,57.10
2018-06-05T13:01:18.707Z,56.80
2018-06-05T13:03:48.924Z,55.80
2018-06-05T13:06:19.173Z,55.60
2018-06-05T13:08:49.183Z,55.00
2018-06-05T13:11:19.601Z,54.90
2018-06-05T13:13:49.610Z,55.40
2018-06-05T13:16:19.876Z,55.40
2018-06-05T13:18:50.048Z,54.60
2018-06-05T13:21:20.214Z,54.90
2018-06-05T13:23:50.537Z,55.20
2018-06-05T13:26:20.630Z,54.40
2018-06-05T13:28:50.812Z,54.70
2018-06-05T13:31:20.960Z,53.80
2018-06-05T13:33:51.189Z,54.40
2018-06-05T13:36:21.456Z,54.60
2018-06-05T13:38:51.564Z,54.90
2018-06-05T13:41:21.837Z,54.20
2018-06-05T13:43:52.176Z,54.00
2018-06-05T13:46:22.239Z,53.90
2018-06-05T13:48:52.473Z,53.80
2018-06-05T13:51:22.603Z,53.90
2018-06-05T13:53:52.899Z,53.30
2018-06-05T13:56:23.055Z,53.90
2018-06-05T13:58:53.104Z,52.50
2018-06-05T14:01:23.387Z,51.90
2018-06-05T14:03:54.040Z,52.00
2018-06-05T14:06:24.523Z,51.40
2018-06-05T14:08:54.998Z,50.80
2018-06-05T14:11:25.251Z,50.90
2018-06-05T14:13:55.358Z,49.80
2018-06-05T14:16:25.602Z,49.00
2018-06-05T14:18:55.880Z,48.50
2018-06-05T14:21:26.058Z,48.10
2018-06-05T14:23:56.180Z,45.70
2018-06-05T14:26:26.343Z,46.60
2018-06-05T14:28:56.555Z,46.10
2018-06-05T14:31:26.904Z,46.00
2018-06-05T14:33:57.388Z,45.50
2018-06-05T14:36:28.019Z,44.80
2018-06-05T14:38:58.472Z,44.60
2018-06-05T14:41:28.698Z,44.20
2018-06-05T14:43:58.681Z,43.20
2018-06-05T14:46:29.020Z,43.30
2018-06-05T14:48:59.313Z,42.50
2018-06-05T14:51:29.568Z,43.30
2018-06-05T14:54:00.004Z,42.50
2018-06-05T14:56:30.649Z,42.60
2018-06-05T14:59:00.890Z,43.00
2018-06-05T15:01:31.294Z,41.90
2018-06-05T15:04:01.253Z,41.80
2018-06-05T15:06:31.279Z,41.80
2018-06-05T15:09:01.591Z,41.40
2018-06-05T15:11:31.773Z,40.50
2018-06-05T15:14:02.054Z,41.30
2018-06-05T15:16:32.070Z,40.90
2018-06-05T15:19:02.313Z,40.30
2018-06-05T15:21:32.664Z,40.90
2018-06-05T15:26:32.929Z,39.50
2018-06-05T15:29:03.116Z,40.40
2018-06-05T15:31:33.300Z,39.30
2018-06-05T15:34:03.584Z,40.60
2018-06-05T15:36:33.705Z,39.50
2018-06-05T15:39:03.909Z,40.00
2018-06-05T15:41:34.090Z,39.40
2018-06-05T15:44:04.301Z,38.70
2018-06-05T15:46:34.474Z,38.50
2018-06-05T15:49:04.746Z,38.40
2018-06-05T15:51:35.059Z,38.20
2018-06-05T15:54:05.299Z,37.70
2018-06-05T15:56:35.420Z,37.80
2018-06-05T15:59:05.625Z,37.80
2018-06-05T16:01:35.998Z,37.50
2018-06-05T16:04:06.371Z,37.40
2018-06-05T16:06:37.115Z,36.30
2018-06-05T16:09:10.278Z,37.70
2018-06-05T16:11:40.120Z,38.20
2018-06-05T16:14:10.441Z,37.70
2018-06-05T16:21:40.296Z,35.30
2018-06-05T16:24:10.319Z,34.80
2018-06-05T16:26:40.680Z,34.90
2018-06-05T16:29:10.853Z,34.70
2018-06-05T16:31:40.994Z,33.80
2018-06-05T16:34:11.036Z,33.40
2018-06-05T16:36:41.228Z,33.10
2018-06-05T16:39:18.123Z,32.70
2018-06-05T16:41:48.443Z,33.00
2018-06-05T16:44:18.652Z,32.60
2018-06-05T16:46:48.695Z,32.80
2018-06-05T16:49:19.198Z,32.90
2018-06-05T16:51:49.433Z,33.10
2018-06-05T16:54:19.593Z,32.80
2018-06-05T16:56:50.000Z,32.90
2018-06-05T16:59:20.228Z,33.30
2018-06-05T17:01:50.441Z,34.10
2018-06-05T17:04:20.600Z,34.10
2018-06-05T17:06:50.980Z,33.50
2018-06-05T17:09:21.646Z,34.20
2018-06-05T17:11:51.968Z,34.10
2018-06-05T17:14:22.006Z,34.00
2018-06-05T17:16:52.222Z,34.20
2018-06-05T17:19:22.433Z,34.60
2018-06-05T17:21:52.723Z,34.80
2018-06-05T17:24:23.078Z,35.40
2018-06-05T17:26:53.225Z,35.20
2018-06-05T17:29:23.288Z,36.40
2018-06-05T17:31:53.653Z,36.30
2018-06-05T17:34:23.595Z,36.50
2018-06-05T17:36:53.943Z,36.50
2018-06-05T17:39:24.998Z,36.60
2018-06-05T17:41:55.208Z,37.20
2018-06-05T17:44:25.298Z,36.70
2018-06-05T17:46:56.210Z,36.90
2018-06-05T17:49:26.697Z,37.20
2018-06-05T17:51:57.219Z,37.00
2018-06-05T17:54:28.088Z,36.20
2018-06-05T17:56:58.476Z,35.70
2018-06-05T17:59:28.996Z,35.40
2018-06-05T18:01:59.658Z,35.30
2018-06-05T18:04:30.120Z,35.70
2018-06-05T18:07:00.968Z,35.90
2018-06-05T18:09:31.146Z,36.50
2018-06-05T18:12:01.950Z,36.30
2018-06-05T18:14:32.214Z,37.50
2018-06-05T18:17:03.071Z,37.80
2018-06-05T18:19:33.564Z,37.90
2018-06-05T18:22:04.636Z,37.80
2018-06-05T18:24:34.857Z,38.10
2018-06-05T18:27:05.868Z,37.90
2018-06-05T18:29:36.829Z,37.90
2018-06-05T18:32:06.985Z,38.70
2018-06-05T18:34:37.766Z,39.80
2018-06-05T18:37:08.419Z,39.60
2018-06-05T18:39:38.593Z,40.70
2018-06-05T18:42:08.685Z,40.50
2018-06-05T18:44:38.828Z,41.70
2018-06-05T18:49:38.864Z,43.00
2018-06-05T18:52:09.465Z,43.60
2018-06-05T18:54:39.975Z,44.10
2018-06-05T18:57:10.016Z,44.40
2018-06-05T18:59:40.528Z,44.30
2018-06-05T19:02:10.799Z,44.50
2018-06-05T19:07:10.712Z,45.00
2018-06-05T19:09:41.011Z,45.30
2018-06-05T19:12:11.350Z,45.60
2018-06-05T19:14:41.269Z,45.80
2018-06-05T19:17:11.504Z,46.10
2018-06-05T19:19:41.541Z,46.30
2018-06-05T19:22:11.866Z,46.50
2018-06-05T19:24:42.113Z,47.10
2018-06-05T19:27:12.660Z,47.50
2018-06-05T19:29:43.098Z,47.60
2018-06-05T19:32:13.701Z,47.50
2018-06-05T19:34:43.814Z,47.70
2018-06-05T19:37:14.118Z,47.50
2018-06-05T19:39:44.317Z,47.50
2018-06-05T19:42:14.587Z,47.50
2018-06-05T19:44:44.669Z,47.50
2018-06-05T19:47:14.795Z,47.30
2018-06-05T19:49:44.838Z,47.80
2018-06-05T19:52:15.126Z,47.60
2018-06-05T19:54:45.319Z,47.90
2018-06-05T19:57:15.508Z,47.80
2018-06-05T19:59:45.789Z,47.90
2018-06-05T20:02:15.929Z,47.90
2018-06-05T20:04:46.167Z,48.10
2018-06-05T20:07:16.417Z,48.20
2018-06-05T20:09:46.584Z,48.40
2018-06-05T20:12:16.517Z,48.50
2018-06-05T20:14:46.648Z,48.30
2018-06-05T20:17:16.806Z,48.60
2018-06-05T20:19:46.767Z,48.70
2018-06-05T20:22:16.617Z,49.00
2018-06-05T20:24:46.819Z,49.10
2018-06-05T20:27:16.980Z,48.60
2018-06-05T20:29:47.183Z,49.10
2018-06-05T20:32:17.322Z,49.70
2018-06-05T20:34:47.654Z,50.30
2018-06-05T20:37:17.659Z,50.90
2018-06-05T20:39:47.924Z,51.20
2018-06-05T20:42:18.109Z,51.90
2018-06-05T20:44:48.349Z,52.10
2018-06-05T20:47:18.395Z,52.50
2018-06-05T20:49:48.538Z,52.90
2018-06-05T20:52:18.924Z,53.40
2018-06-05T20:54:49.185Z,53.70
2018-06-05T20:57:19.504Z,53.60
2018-06-05T20:59:49.596Z,53.60
2018-06-05T21:02:20.023Z,53.80
2018-06-05T21:04:50.249Z,53.90
2018-06-05T21:07:20.504Z,53.90
2018-06-05T21:09:50.695Z,54.20
2018-06-05T21:12:20.965Z,54.50
2018-06-05T21:14:50.998Z,54.70
2018-06-05T21:17:21.236Z,55.30
2018-06-05T21:19:51.316Z,55.30
2018-06-05T21:22:21.249Z,56.00
2018-06-05T21:24:51.304Z,55.40
2018-06-05T21:27:21.732Z,55.90
2018-06-05T21:29:51.781Z,56.10
2018-06-05T21:32:21.925Z,55.70
2018-06-05T21:34:52.164Z,55.80
2018-06-05T21:37:22.355Z,55.90
2018-06-05T21:39:52.514Z,55.80
2018-06-05T21:42:22.805Z,55.60
2018-06-05T21:44:52.998Z,56.00
2018-06-05T21:47:23.149Z,56.40
2018-06-05T21:49:53.399Z,56.70
2018-06-05T21:52:23.499Z,57.60
2018-06-05T21:54:53.835Z,57.60
2018-06-05T21:57:24.064Z,57.60
2018-06-05T21:59:54.104Z,57.50
2018-06-05T22:02:24.185Z,57.70
2018-06-05T22:04:54.017Z,58.00
2018-06-05T22:07:24.539Z,58.10
2018-06-05T22:09:55.260Z,58.40
2018-06-05T22:12:25.649Z,58.00
2018-06-05T22:14:56.197Z,57.70
2018-06-05T22:17:26.444Z,57.80
2018-06-05T22:19:57.264Z,58.10
2018-06-05T22:22:27.531Z,58.10
2018-06-05T22:24:58.041Z,57.70
2018-06-05T22:27:28.711Z,57.70
2018-06-05T22:29:59.336Z,57.70
2018-06-05T22:32:29.851Z,57.10
2018-06-05T22:35:00.492Z,57.30
2018-06-05T22:37:30.813Z,57.40
2018-06-05T22:42:31.591Z,57.90
2018-06-05T22:45:05.281Z,57.90
2018-06-05T22:47:35.647Z,58.10
2018-06-05T22:50:05.772Z,58.40
2018-06-05T22:52:35.860Z,58.60
2018-06-05T22:55:06.287Z,58.90
2018-06-05T22:57:36.316Z,59.20
2018-06-05T23:00:06.517Z,59.20
2018-06-05T23:02:36.921Z,58.90
2018-06-05T23:05:07.046Z,58.80
2018-06-05T23:07:37.315Z,58.80
2018-06-05T23:10:07.280Z,58.80
2018-06-05T23:12:37.424Z,59.00
2018-06-05T23:15:07.577Z,59.10
2018-06-05T23:17:37.951Z,59.00
2018-06-05T23:20:08.091Z,59.50
2018-06-05T23:22:37.986Z,59.50
2018-06-05T23:25:08.156Z,59.30
2018-06-05T23:27:38.889Z,59.60
2018-06-05T23:30:08.927Z,58.90
2018-06-05T23:32:39.059Z,59.40
2018-06-05T23:37:38.612Z,59.90
2018-06-05T23:40:08.966Z,59.60
2018-06-05T23:42:38.977Z,59.20
2018-06-05T23:45:09.076Z,58.80
2018-06-05T23:47:39.432Z,59.60
2018-06-05T23:50:09.395Z,60.10
2018-06-05T23:52:39.820Z,60.50
2018-06-05T23:55:09.912Z,61.20
2018-06-05T23:57:39.878Z,61.70
